createdAt,value
2023-05-14T00:00:36.841Z,366.67
2023-05-14T00:01:36.898Z,369.13
2023-05-14T00:02:37.078Z,367.08
2023-05-14T00:03:37.167Z,367.90
2023-05-14T00:04:37.212Z,368.31
2023-05-14T00:05:37.224Z,368.31
2023-05-14T00:06:37.304Z,367.49
2023-05-14T00:07:37.383Z,367.49
2023-05-14T00:08:37.454Z,367.49
2023-05-14T00:09:37.537Z,369.54
2023-05-14T00:10:37.605Z,368.31
2023-05-14T00:11:37.686Z,365.86
2023-05-14T00:12:37.745Z,368.31
2023-05-14T00:13:37.830Z,368.72
2023-05-14T00:14:37.897Z,369.13
2023-05-14T00:15:38.017Z,370.37
2023-05-14T00:16:38.216Z,367.90
2023-05-14T00:17:38.174Z,367.49
2023-05-14T00:18:38.286Z,367.90
2023-05-14T00:19:38.307Z,367.49
2023-05-14T00:20:38.387Z,367.49
2023-05-14T00:21:38.477Z,370.37
2023-05-14T00:22:38.539Z,368.72
2023-05-14T00:23:38.612Z,370.37
2023-05-14T00:24:38.719Z,368.31
2023-05-14T00:25:38.800Z,365.46
2023-05-14T00:26:38.883Z,368.31
2023-05-14T00:27:38.939Z,369.13
2023-05-14T00:28:39.010Z,368.31
2023-05-14T00:29:39.089Z,369.13
2023-05-14T00:30:39.180Z,369.13
2023-05-14T00:31:39.268Z,370.37
2023-05-14T00:32:39.364Z,368.31
2023-05-14T00:33:39.394Z,368.72
2023-05-14T00:34:39.485Z,369.13
2023-05-14T00:35:39.552Z,369.95
2023-05-14T00:36:39.637Z,369.54
2023-05-14T00:37:39.703Z,369.95
2023-05-14T00:38:39.785Z,369.54
2023-05-14T00:39:39.845Z,369.13
2023-05-14T00:40:39.959Z,368.72
2023-05-14T00:41:40.061Z,370.37
2023-05-14T00:42:40.125Z,367.49
2023-05-14T00:43:40.214Z,368.72
2023-05-14T00:44:40.290Z,369.54
2023-05-14T00:45:40.364Z,370.37
2023-05-14T00:46:40.499Z,370.37
2023-05-14T00:47:40.560Z,369.54
2023-05-14T00:48:40.638Z,367.90
2023-05-14T00:49:40.706Z,367.90
2023-05-14T00:50:40.811Z,369.13
2023-05-14T00:51:40.894Z,370.37
2023-05-14T00:52:40.997Z,369.95
2023-05-14T00:53:41.101Z,370.37
2023-05-14T00:54:41.146Z,367.90
2023-05-14T00:55:41.214Z,369.95
2023-05-14T00:56:41.287Z,367.08
2023-05-14T00:57:41.382Z,370.37
2023-05-14T00:58:41.494Z,369.95
2023-05-14T00:59:41.556Z,370.79
2023-05-14T01:00:41.674Z,369.54
2023-05-14T01:01:41.717Z,369.54
2023-05-14T01:02:41.885Z,369.95
2023-05-14T01:03:41.961Z,368.72
2023-05-14T01:04:41.950Z,368.72
2023-05-14T01:05:42.040Z,369.54
2023-05-14T01:06:42.121Z,369.95
2023-05-14T01:07:42.196Z,369.13
2023-05-14T01:08:42.290Z,370.37
2023-05-14T01:09:42.384Z,371.20
2023-05-14T01:10:42.437Z,369.95
2023-05-14T01:11:42.521Z,369.13
2023-05-14T01:12:42.566Z,370.37
2023-05-14T01:13:42.640Z,369.95
2023-05-14T01:14:42.800Z,370.37
2023-05-14T01:15:42.825Z,370.37
2023-05-14T01:16:42.928Z,369.54
2023-05-14T01:17:43.030Z,370.79
2023-05-14T01:18:43.145Z,369.95
2023-05-14T01:19:43.172Z,372.04
2023-05-14T01:20:43.244Z,370.37
2023-05-14T01:21:43.353Z,370.79
2023-05-14T01:22:43.378Z,369.54
2023-05-14T01:23:43.461Z,370.37
2023-05-14T01:24:43.546Z,371.62
2023-05-14T01:25:43.645Z,370.37
2023-05-14T01:26:43.706Z,371.20
2023-05-14T01:27:43.821Z,370.37
2023-05-14T01:28:43.878Z,368.31
2023-05-14T01:29:43.963Z,370.37
2023-05-14T01:30:44.062Z,370.37
2023-05-14T01:31:44.227Z,370.79
2023-05-14T01:32:44.262Z,369.13
2023-05-14T01:33:44.273Z,372.04
2023-05-14T01:34:44.348Z,371.20
2023-05-14T01:35:44.425Z,370.79
2023-05-14T01:36:44.502Z,371.62
2023-05-14T01:37:44.586Z,367.49
2023-05-14T01:38:44.654Z,370.37
2023-05-14T01:39:44.733Z,370.37
2023-05-14T01:40:44.811Z,369.95
2023-05-14T01:41:44.888Z,370.79
2023-05-14T01:42:44.968Z,369.13
2023-05-14T01:43:45.041Z,371.20
2023-05-14T01:44:45.176Z,369.95
2023-05-14T01:45:45.242Z,370.37
2023-05-14T01:46:45.302Z,369.95
2023-05-14T01:47:45.369Z,370.37
2023-05-14T01:48:45.423Z,370.37
2023-05-14T01:49:45.490Z,369.95
2023-05-14T01:50:45.582Z,370.79
2023-05-14T01:51:45.652Z,371.20
2023-05-14T01:52:45.719Z,370.79
2023-05-14T01:53:45.806Z,370.79
2023-05-14T01:54:45.875Z,369.13
2023-05-14T01:55:45.957Z,372.46
2023-05-14T01:56:46.039Z,369.95
2023-05-14T01:57:46.104Z,369.13
2023-05-14T01:58:46.183Z,370.37
2023-05-14T01:59:46.270Z,370.79
2023-05-14T02:00:46.337Z,370.37
2023-05-14T02:01:46.437Z,369.95
2023-05-14T02:02:46.559Z,369.13
2023-05-14T02:03:46.601Z,370.37
2023-05-14T02:04:46.674Z,370.79
2023-05-14T02:05:46.744Z,368.72
2023-05-14T02:06:46.875Z,369.13
2023-05-14T02:07:46.981Z,367.08
2023-05-14T02:08:47.014Z,370.79
2023-05-14T02:09:47.124Z,371.20
2023-05-14T02:10:47.185Z,367.90
2023-05-14T02:11:47.268Z,370.79
2023-05-14T02:12:47.341Z,370.79
2023-05-14T02:13:47.417Z,367.08
2023-05-14T02:14:47.488Z,370.37
2023-05-14T02:15:47.584Z,370.37
2023-05-14T02:16:47.641Z,368.72
2023-05-14T02:17:47.785Z,369.13
2023-05-14T02:18:47.826Z,369.95
2023-05-14T02:19:47.854Z,369.13
2023-05-14T02:20:47.948Z,369.13
2023-05-14T02:21:48.028Z,371.20
2023-05-14T02:22:48.111Z,371.62
2023-05-14T02:23:48.200Z,369.95
2023-05-14T02:24:48.289Z,370.37
2023-05-14T02:25:48.361Z,370.79
2023-05-14T02:26:48.444Z,369.95
2023-05-14T02:27:48.504Z,371.20
2023-05-14T02:28:48.582Z,370.79
2023-05-14T02:29:48.665Z,370.37
2023-05-14T02:30:48.748Z,370.37
2023-05-14T02:31:48.922Z,369.13
2023-05-14T02:32:48.984Z,371.62
2023-05-14T02:33:48.988Z,372.88
2023-05-14T02:34:49.074Z,371.62
2023-05-14T02:35:49.140Z,372.46
2023-05-14T02:36:49.209Z,371.62
2023-05-14T02:37:49.282Z,369.54
2023-05-14T02:38:49.350Z,369.54
2023-05-14T02:39:49.440Z,369.54
2023-05-14T02:40:49.497Z,372.04
2023-05-14T02:41:49.575Z,371.20
2023-05-14T02:42:49.649Z,370.79
2023-05-14T02:43:49.721Z,369.95
2023-05-14T02:44:49.822Z,370.79
2023-05-14T02:45:49.907Z,371.62
2023-05-14T02:46:50.036Z,370.79
2023-05-14T02:47:50.081Z,370.37
2023-05-14T02:48:50.132Z,371.62
2023-05-14T02:49:50.234Z,371.62
2023-05-14T02:50:50.280Z,372.04
2023-05-14T02:51:50.357Z,368.72
2023-05-14T02:52:50.431Z,371.20
2023-05-14T02:53:50.535Z,370.79
2023-05-14T02:54:50.590Z,371.62
2023-05-14T02:55:50.673Z,371.20
2023-05-14T02:56:50.751Z,372.04
2023-05-14T02:57:50.809Z,371.20
2023-05-14T02:58:50.887Z,370.79
2023-05-14T02:59:50.950Z,369.95
2023-05-14T03:00:51.083Z,371.20
2023-05-14T03:01:51.201Z,371.20
2023-05-14T03:02:51.348Z,372.88
2023-05-14T03:03:51.330Z,370.79
2023-05-14T03:04:51.429Z,372.88
2023-05-14T03:05:51.498Z,371.62
2023-05-14T03:06:51.581Z,370.37
2023-05-14T03:07:51.668Z,372.04
2023-05-14T03:08:51.725Z,372.04
2023-05-14T03:09:51.798Z,373.30
2023-05-14T03:10:51.896Z,372.04
2023-05-14T03:11:51.956Z,371.62
2023-05-14T03:12:52.064Z,372.88
2023-05-14T03:13:52.117Z,372.04
2023-05-14T03:14:52.180Z,371.62
2023-05-14T03:15:52.271Z,371.20
2023-05-14T03:16:52.456Z,368.72
2023-05-14T03:17:52.471Z,372.88
2023-05-14T03:18:52.589Z,371.62
2023-05-14T03:19:52.619Z,372.04
2023-05-14T03:20:52.693Z,373.30
2023-05-14T03:21:52.777Z,371.20
2023-05-14T03:22:52.853Z,372.04
2023-05-14T03:23:52.917Z,370.79
2023-05-14T03:24:52.992Z,372.04
2023-05-14T03:25:53.053Z,371.20
2023-05-14T03:26:53.139Z,372.88
2023-05-14T03:27:53.206Z,371.62
2023-05-14T03:28:53.285Z,371.62
2023-05-14T03:29:53.372Z,372.04
2023-05-14T03:30:54.230Z,372.88
2023-05-14T03:31:53.519Z,369.54
2023-05-14T03:32:53.625Z,373.72
2023-05-14T03:33:53.681Z,371.20
2023-05-14T03:34:53.748Z,370.79
2023-05-14T03:35:53.809Z,372.46
2023-05-14T03:36:53.886Z,372.04
2023-05-14T03:37:53.954Z,371.62
2023-05-14T03:38:54.034Z,370.37
2023-05-14T03:39:54.147Z,369.95
2023-05-14T03:40:54.184Z,367.90
2023-05-14T03:41:54.272Z,373.72
2023-05-14T03:42:54.351Z,372.04
2023-05-14T03:43:54.440Z,372.46
2023-05-14T03:44:54.522Z,371.62
2023-05-14T03:45:54.592Z,372.04
2023-05-14T03:46:54.667Z,372.88
2023-05-14T03:47:54.815Z,370.37
2023-05-14T03:48:54.828Z,373.30
2023-05-14T03:49:54.928Z,373.30
2023-05-14T03:50:54.965Z,372.88
2023-05-14T03:51:55.043Z,370.79
2023-05-14T03:52:55.128Z,373.72
2023-05-14T03:53:55.200Z,372.46
2023-05-14T03:54:55.275Z,372.88
2023-05-14T03:55:55.346Z,374.14
2023-05-14T03:56:55.417Z,371.62
2023-05-14T03:57:55.534Z,371.20
2023-05-14T03:58:55.600Z,372.46
2023-05-14T03:59:55.669Z,372.04
2023-05-14T04:00:55.743Z,371.20
2023-05-14T04:01:55.816Z,372.88
2023-05-14T04:02:55.958Z,372.46
2023-05-14T04:03:56.044Z,374.14
2023-05-14T04:04:56.145Z,373.30
2023-05-14T04:05:56.103Z,373.72
2023-05-14T04:06:56.213Z,371.20
2023-05-14T04:07:56.270Z,371.20
2023-05-14T04:08:56.334Z,374.14
2023-05-14T04:09:56.418Z,372.88
2023-05-14T04:10:56.480Z,372.88
2023-05-14T04:11:56.558Z,372.88
2023-05-14T04:12:56.619Z,372.88
2023-05-14T04:13:56.719Z,372.88
2023-05-14T04:14:56.791Z,371.20
2023-05-14T04:15:56.930Z,372.88
2023-05-14T04:16:57.013Z,374.14
2023-05-14T04:17:57.139Z,373.30
2023-05-14T04:18:57.211Z,373.72
2023-05-14T04:19:57.240Z,371.20
2023-05-14T04:20:57.308Z,372.46
2023-05-14T04:21:57.374Z,372.88
2023-05-14T04:22:57.451Z,372.88
2023-05-14T04:23:57.532Z,372.04
2023-05-14T04:24:57.608Z,372.88
2023-05-14T04:25:57.713Z,374.14
2023-05-14T04:26:57.761Z,372.46
2023-05-14T04:27:57.860Z,374.14
2023-05-14T04:28:57.948Z,372.88
2023-05-14T04:29:58.011Z,372.46
2023-05-14T04:30:58.086Z,373.30
2023-05-14T04:31:58.203Z,372.88
2023-05-14T04:32:59.216Z,372.46
2023-05-14T04:33:58.356Z,371.62
2023-05-14T04:34:58.449Z,372.88
2023-05-14T04:35:58.555Z,374.14
2023-05-14T04:36:58.620Z,373.72
2023-05-14T04:37:58.700Z,372.88
2023-05-14T04:38:58.775Z,372.04
2023-05-14T04:39:58.871Z,373.72
2023-05-14T04:40:58.953Z,370.79
2023-05-14T04:41:59.008Z,372.46
2023-05-14T04:42:59.091Z,374.14
2023-05-14T04:43:59.159Z,373.30
2023-05-14T04:44:59.237Z,372.88
2023-05-14T04:45:59.411Z,370.79
2023-05-14T04:46:59.374Z,372.88
2023-05-14T04:47:59.457Z,372.46
2023-05-14T04:48:59.540Z,373.72
2023-05-14T04:49:59.580Z,372.88
2023-05-14T04:50:59.687Z,372.04
2023-05-14T04:51:59.727Z,374.14
2023-05-14T04:52:59.799Z,372.46
2023-05-14T04:53:59.882Z,372.04
2023-05-14T04:54:59.948Z,372.46
2023-05-14T04:56:00.052Z,373.30
2023-05-14T04:57:00.143Z,372.46
2023-05-14T04:58:00.196Z,372.04
2023-05-14T04:59:00.358Z,372.88
2023-05-14T05:00:00.450Z,371.20
2023-05-14T05:01:00.567Z,372.88
2023-05-14T05:02:00.556Z,370.37
2023-05-14T05:03:00.853Z,372.88
2023-05-14T05:04:00.809Z,374.14
2023-05-14T05:05:00.825Z,369.54
2023-05-14T05:06:00.900Z,373.30
2023-05-14T05:07:00.998Z,371.62
2023-05-14T05:08:01.061Z,372.46
2023-05-14T05:09:02.135Z,371.20
2023-05-14T05:10:01.211Z,372.04
2023-05-14T05:11:01.285Z,369.95
2023-05-14T05:12:01.389Z,371.62
2023-05-14T05:13:01.463Z,372.88
2023-05-14T05:14:01.551Z,371.20
2023-05-14T05:15:01.612Z,372.88
2023-05-14T05:16:01.733Z,371.20
2023-05-14T05:17:01.776Z,372.88
2023-05-14T05:18:01.928Z,369.54
2023-05-14T05:19:01.988Z,370.79
2023-05-14T05:20:01.995Z,371.20
2023-05-14T05:21:02.055Z,372.88
2023-05-14T05:22:02.118Z,369.54
2023-05-14T05:23:02.206Z,372.04
2023-05-14T05:24:02.289Z,373.30
2023-05-14T05:25:02.413Z,374.14
2023-05-14T05:26:02.444Z,370.79
2023-05-14T05:27:02.511Z,370.79
2023-05-14T05:28:02.606Z,372.04
2023-05-14T05:29:02.697Z,370.79
2023-05-14T05:30:02.768Z,371.20
2023-05-14T05:31:02.859Z,370.79
2023-05-14T05:32:02.948Z,370.79
2023-05-14T05:33:03.094Z,372.04
2023-05-14T05:34:03.101Z,370.79
2023-05-14T05:35:03.299Z,370.79
2023-05-14T05:36:03.252Z,371.62
2023-05-14T05:37:03.323Z,369.95
2023-05-14T05:38:03.428Z,370.79
2023-05-14T05:39:03.511Z,371.20
2023-05-14T05:40:03.617Z,369.95
2023-05-14T05:41:03.648Z,371.62
2023-05-14T05:42:03.755Z,372.46
2023-05-14T05:43:03.817Z,371.62
2023-05-14T05:44:03.889Z,369.95
2023-05-14T05:45:03.966Z,369.95
2023-05-14T05:46:04.091Z,371.62
2023-05-14T05:47:04.198Z,372.88
2023-05-14T05:48:04.281Z,372.88
2023-05-14T05:49:04.291Z,371.62
2023-05-14T05:50:04.380Z,370.37
2023-05-14T05:51:04.446Z,370.79
2023-05-14T05:52:04.526Z,372.04
2023-05-14T05:53:04.616Z,370.37
2023-05-14T05:54:04.700Z,371.20
2023-05-14T05:55:04.814Z,371.20
2023-05-14T05:56:04.843Z,371.20
2023-05-14T05:57:04.928Z,371.20
2023-05-14T05:58:05.018Z,372.04
2023-05-14T05:59:05.075Z,371.20
2023-05-14T06:00:05.223Z,371.20
2023-05-14T06:01:05.225Z,371.20
2023-05-14T06:02:05.309Z,371.62
2023-05-14T06:03:05.404Z,368.72
2023-05-14T06:04:05.495Z,370.37
2023-05-14T06:05:05.624Z,372.46
2023-05-14T06:06:05.646Z,370.37
2023-05-14T06:07:05.729Z,369.54
2023-05-14T06:08:05.866Z,369.95
2023-05-14T06:09:05.907Z,369.95
2023-05-14T06:10:05.991Z,369.95
2023-05-14T06:11:06.059Z,370.37
2023-05-14T06:12:06.142Z,370.79
2023-05-14T06:13:06.222Z,369.13
2023-05-14T06:14:06.298Z,369.95
2023-05-14T06:15:06.395Z,368.72
2023-05-14T06:16:06.461Z,371.20
2023-05-14T06:17:06.520Z,369.95
2023-05-14T06:18:06.601Z,372.46
2023-05-14T06:19:06.720Z,371.20
2023-05-14T06:20:06.766Z,369.13
2023-05-14T06:21:06.851Z,369.95
2023-05-14T06:22:06.910Z,367.90
2023-05-14T06:23:06.978Z,369.54
2023-05-14T06:24:07.048Z,368.31
2023-05-14T06:25:07.134Z,368.72
2023-05-14T06:26:07.244Z,367.49
2023-05-14T06:27:07.299Z,368.31
2023-05-14T06:28:07.379Z,368.31
2023-05-14T06:29:07.462Z,371.20
2023-05-14T06:30:07.542Z,370.79
2023-05-14T06:31:07.622Z,372.04
2023-05-14T06:32:07.781Z,367.90
2023-05-14T06:33:07.790Z,370.79
2023-05-14T06:34:07.866Z,366.67
2023-05-14T06:35:07.944Z,366.27
2023-05-14T06:36:08.029Z,367.49
2023-05-14T06:37:08.107Z,367.08
2023-05-14T06:38:08.176Z,367.49
2023-05-14T06:39:08.265Z,370.79
2023-05-14T06:40:08.341Z,367.90
2023-05-14T06:41:08.412Z,369.54
2023-05-14T06:42:08.529Z,366.27
2023-05-14T06:43:08.604Z,366.67
2023-05-14T06:44:08.669Z,367.08
2023-05-14T06:45:08.749Z,367.08
2023-05-14T06:46:08.820Z,366.67
2023-05-14T06:47:08.895Z,369.54
2023-05-14T06:48:09.070Z,365.46
2023-05-14T06:49:09.062Z,367.49
2023-05-14T06:50:10.824Z,365.05
2023-05-14T06:51:09.209Z,367.08
2023-05-14T06:52:09.301Z,366.67
2023-05-14T06:53:09.404Z,365.86
2023-05-14T06:54:09.482Z,366.67
2023-05-14T06:55:09.563Z,367.08
2023-05-14T06:56:09.637Z,364.65
2023-05-14T06:57:09.709Z,369.95
2023-05-14T06:58:09.817Z,365.46
2023-05-14T06:59:09.861Z,363.85
2023-05-14T07:00:09.967Z,364.65
2023-05-14T07:01:10.055Z,366.67
2023-05-14T07:02:10.135Z,364.65
2023-05-14T07:03:10.300Z,368.31
2023-05-14T07:04:10.371Z,365.46
2023-05-14T07:05:10.418Z,367.90
2023-05-14T07:06:12.487Z,367.08
2023-05-14T07:07:10.596Z,364.65
2023-05-14T07:08:10.669Z,365.46
2023-05-14T07:09:10.739Z,364.65
2023-05-14T07:10:10.825Z,364.65
2023-05-14T07:11:10.897Z,363.85
2023-05-14T07:12:10.992Z,363.45
2023-05-14T07:13:11.041Z,363.45
2023-05-14T07:14:11.166Z,364.65
2023-05-14T07:15:11.236Z,363.05
2023-05-14T07:16:11.352Z,371.20
2023-05-14T07:17:11.403Z,365.05
2023-05-14T07:18:11.571Z,364.65
2023-05-14T07:19:11.650Z,363.85
2023-05-14T07:20:11.637Z,366.67
2023-05-14T07:21:11.711Z,368.72
2023-05-14T07:22:11.775Z,363.05
2023-05-14T07:23:11.879Z,369.13
2023-05-14T07:24:11.993Z,365.05
2023-05-14T07:25:18.056Z,362.65
2023-05-14T07:26:12.146Z,362.65
2023-05-14T07:27:12.222Z,363.45
2023-05-14T07:28:12.271Z,368.31
2023-05-14T07:29:12.372Z,362.25
2023-05-14T07:30:12.458Z,367.49
2023-05-14T07:31:12.575Z,363.05
2023-05-14T07:32:15.461Z,369.54
2023-05-14T07:33:12.708Z,365.05
2023-05-14T07:34:12.855Z,361.46
2023-05-14T07:35:12.876Z,365.05
2023-05-14T07:36:12.929Z,362.65
2023-05-14T07:37:12.999Z,362.65
2023-05-14T07:38:13.067Z,365.86
2023-05-14T07:39:13.167Z,363.45
2023-05-14T07:40:13.259Z,363.05
2023-05-14T07:41:13.339Z,365.46
2023-05-14T07:42:19.537Z,363.85
2023-05-14T07:43:13.484Z,361.46
2023-05-14T07:44:13.565Z,365.86
2023-05-14T07:45:13.664Z,364.65
2023-05-14T07:46:13.761Z,361.86
2023-05-14T07:47:13.887Z,364.25
2023-05-14T07:48:14.010Z,363.85
2023-05-14T07:49:14.002Z,361.46
2023-05-14T07:50:14.084Z,370.79
2023-05-14T07:51:14.174Z,364.25
2023-05-14T07:52:14.247Z,363.45
2023-05-14T07:53:14.352Z,361.46
2023-05-14T07:54:14.413Z,366.27
2023-05-14T07:55:14.530Z,361.46
2023-05-14T07:56:14.626Z,363.05
2023-05-14T07:57:14.700Z,366.27
2023-05-14T07:58:14.780Z,366.27
2023-05-14T07:59:14.876Z,359.49
2023-05-14T08:00:14.956Z,369.54
2023-05-14T08:01:15.051Z,359.89
2023-05-14T08:02:15.136Z,367.08
2023-05-14T08:03:15.294Z,360.28
2023-05-14T08:04:15.324Z,364.65
2023-05-14T08:05:15.355Z,365.86
2023-05-14T08:06:15.419Z,365.46
2023-05-14T08:07:15.496Z,365.46
2023-05-14T08:08:15.572Z,359.10
2023-05-14T08:09:15.667Z,364.25
2023-05-14T08:10:15.769Z,360.67
2023-05-14T08:11:15.909Z,360.67
2023-05-14T08:12:15.926Z,358.71
2023-05-14T08:13:16.000Z,359.10
2023-05-14T08:14:16.075Z,359.89
2023-05-14T08:15:16.162Z,363.45
2023-05-14T08:16:16.270Z,363.05
2023-05-14T08:17:16.421Z,363.85
2023-05-14T08:18:16.427Z,364.65
2023-05-14T08:19:16.684Z,362.25
2023-05-14T08:20:16.668Z,364.65
2023-05-14T08:21:16.680Z,361.46
2023-05-14T08:22:16.776Z,358.71
2023-05-14T08:23:16.884Z,358.71
2023-05-14T08:24:16.941Z,359.89
2023-05-14T08:25:17.044Z,357.94
2023-05-14T08:26:17.115Z,364.25
2023-05-14T08:27:17.202Z,357.55
2023-05-14T08:28:17.280Z,364.25
2023-05-14T08:29:17.355Z,363.05
2023-05-14T08:30:17.434Z,364.25
2023-05-14T08:31:17.530Z,357.16
2023-05-14T08:32:23.472Z,366.27
2023-05-14T08:33:17.713Z,363.45
2023-05-14T08:34:17.763Z,357.16
2023-05-14T08:35:17.839Z,362.65
2023-05-14T08:36:17.929Z,358.71
2023-05-14T08:37:18.013Z,363.45
2023-05-14T08:38:18.124Z,357.94
2023-05-14T08:39:18.193Z,358.33
2023-05-14T08:40:18.291Z,356.78
2023-05-14T08:41:18.363Z,361.86
2023-05-14T08:42:18.448Z,362.25
2023-05-14T08:43:18.551Z,363.45
2023-05-14T08:44:18.616Z,356.39
2023-05-14T08:45:18.707Z,356.78
2023-05-14T08:46:18.791Z,357.55
2023-05-14T08:47:18.862Z,356.39
2023-05-14T08:48:19.016Z,355.63
2023-05-14T08:49:19.085Z,362.25
2023-05-14T08:50:21.020Z,361.46
2023-05-14T08:51:19.176Z,359.89
2023-05-14T08:52:19.263Z,361.07
2023-05-14T08:53:19.340Z,355.24
2023-05-14T08:54:19.469Z,362.25
2023-05-14T08:55:19.533Z,362.65
2023-05-14T08:56:19.628Z,356.39
2023-05-14T08:57:19.681Z,359.89
2023-05-14T08:58:19.744Z,355.63
2023-05-14T08:59:19.825Z,354.48
2023-05-14T09:00:19.894Z,354.86
2023-05-14T09:01:19.983Z,356.01
2023-05-14T09:02:20.035Z,360.67
2023-05-14T09:03:20.115Z,360.67
2023-05-14T09:04:20.222Z,356.39
2023-05-14T09:05:20.336Z,361.86
2023-05-14T09:06:20.359Z,357.94
2023-05-14T09:07:20.444Z,361.07
2023-05-14T09:08:20.504Z,360.67
2023-05-14T09:09:20.594Z,355.24
2023-05-14T09:10:20.702Z,362.65
2023-05-14T09:11:20.753Z,356.39
2023-05-14T09:12:20.863Z,358.33
2023-05-14T09:13:20.931Z,358.71
2023-05-14T09:14:21.001Z,363.05
2023-05-14T09:15:21.083Z,360.67
2023-05-14T09:16:21.231Z,358.71
2023-05-14T09:17:21.310Z,357.55
2023-05-14T09:18:21.330Z,359.10
2023-05-14T09:19:21.477Z,355.63
2023-05-14T09:20:21.650Z,357.55
2023-05-14T09:21:21.588Z,356.78
2023-05-14T09:22:21.681Z,359.49
2023-05-14T09:23:21.747Z,357.16
2023-05-14T09:24:21.845Z,353.35
2023-05-14T09:25:21.915Z,356.01
2023-05-14T09:26:21.986Z,357.94
2023-05-14T09:27:22.068Z,356.39
2023-05-14T09:28:22.145Z,357.16
2023-05-14T09:29:22.251Z,358.71
2023-05-14T09:30:22.406Z,355.63
2023-05-14T09:31:22.400Z,363.45
2023-05-14T09:32:22.524Z,355.24
2023-05-14T09:33:22.543Z,357.94
2023-05-14T09:34:22.636Z,355.24
2023-05-14T09:35:22.708Z,356.78
2023-05-14T09:36:22.756Z,357.16
2023-05-14T09:37:22.854Z,357.16
2023-05-14T09:38:22.892Z,356.39
2023-05-14T09:39:22.965Z,355.24
2023-05-14T09:40:23.836Z,355.24
2023-05-14T09:41:23.199Z,354.86
2023-05-14T09:42:23.279Z,349.61
2023-05-14T09:43:23.348Z,355.24
2023-05-14T09:44:23.434Z,356.01
2023-05-14T09:45:23.521Z,355.63
2023-05-14T09:46:23.591Z,352.97
2023-05-14T09:47:23.741Z,355.24
2023-05-14T09:48:23.836Z,353.72
2023-05-14T09:49:23.872Z,354.86
2023-05-14T09:50:24.085Z,352.59
2023-05-14T09:51:24.004Z,354.48
2023-05-14T09:52:24.089Z,354.48
2023-05-14T09:53:24.161Z,353.35
2023-05-14T09:54:24.273Z,353.72
2023-05-14T09:55:24.315Z,353.72
2023-05-14T09:56:24.395Z,353.72
2023-05-14T09:57:24.467Z,355.24
2023-05-14T09:58:24.567Z,352.22
2023-05-14T09:59:24.638Z,353.35
2023-05-14T10:00:24.948Z,351.47
2023-05-14T10:01:24.821Z,352.97
2023-05-14T10:02:24.907Z,354.10
2023-05-14T10:03:24.938Z,352.97
2023-05-14T10:04:25.061Z,352.97
2023-05-14T10:05:25.098Z,352.22
2023-05-14T10:06:25.184Z,354.10
2023-05-14T10:07:25.261Z,353.72
2023-05-14T10:08:25.322Z,352.22
2023-05-14T10:09:25.406Z,354.10
2023-05-14T10:10:25.753Z,351.84
2023-05-14T10:11:25.574Z,353.35
2023-05-14T10:12:25.649Z,353.35
2023-05-14T10:13:25.722Z,352.97
2023-05-14T10:14:25.798Z,351.84
2023-05-14T10:15:25.863Z,351.84
2023-05-14T10:16:25.957Z,350.72
2023-05-14T10:17:26.031Z,351.84
2023-05-14T10:18:26.138Z,352.97
2023-05-14T10:19:26.305Z,351.10
2023-05-14T10:20:26.568Z,352.97
2023-05-14T10:21:26.347Z,351.84
2023-05-14T10:22:26.409Z,351.47
2023-05-14T10:23:26.525Z,352.59
2023-05-14T10:24:26.586Z,351.84
2023-05-14T10:25:26.719Z,352.97
2023-05-14T10:26:26.793Z,352.97
2023-05-14T10:27:26.872Z,349.98
2023-05-14T10:28:26.956Z,349.61
2023-05-14T10:29:27.029Z,350.35
2023-05-14T10:30:27.311Z,350.35
2023-05-14T10:31:27.217Z,349.24
2023-05-14T10:32:27.295Z,352.22
2023-05-14T10:33:27.360Z,349.61
2023-05-14T10:34:27.430Z,349.61
2023-05-14T10:35:27.509Z,348.50
2023-05-14T10:36:27.603Z,349.24
2023-05-14T10:37:27.701Z,351.47
2023-05-14T10:38:27.788Z,348.87
2023-05-14T10:39:27.849Z,349.61
2023-05-14T10:40:27.911Z,347.40
2023-05-14T10:41:27.988Z,349.98
2023-05-14T10:42:28.124Z,347.77
2023-05-14T10:43:28.147Z,349.98
2023-05-14T10:44:28.216Z,350.72
2023-05-14T10:45:28.288Z,348.14
2023-05-14T10:46:28.411Z,348.50
2023-05-14T10:47:28.467Z,349.98
2023-05-14T10:48:28.565Z,348.14
2023-05-14T10:49:42.350Z,347.77
2023-05-14T10:50:28.681Z,349.24
2023-05-14T10:51:28.795Z,347.04
2023-05-14T10:52:28.823Z,347.04
2023-05-14T10:53:28.940Z,348.87
2023-05-14T10:54:29.031Z,347.40
2023-05-14T10:55:29.097Z,346.68
2023-05-14T10:56:29.707Z,349.24
2023-05-14T10:57:29.249Z,347.77
2023-05-14T10:58:29.349Z,345.95
2023-05-14T10:59:29.430Z,347.04
2023-05-14T11:00:29.553Z,347.40
2023-05-14T11:01:29.739Z,348.14
2023-05-14T11:02:29.688Z,346.68
2023-05-14T11:03:29.796Z,347.40
2023-05-14T11:04:29.930Z,346.68
2023-05-14T11:05:29.924Z,346.68
2023-05-14T11:06:30.000Z,344.87
2023-05-14T11:07:30.086Z,342.72
2023-05-14T11:08:30.152Z,348.50
2023-05-14T11:09:30.247Z,344.15
2023-05-14T11:10:30.326Z,344.51
2023-05-14T11:11:30.402Z,345.59
2023-05-14T11:12:30.472Z,345.23
2023-05-14T11:13:30.554Z,344.51
2023-05-14T11:14:30.672Z,345.95
2023-05-14T11:15:30.703Z,346.31
2023-05-14T11:16:30.830Z,344.15
2023-05-14T11:17:30.872Z,345.95
2023-05-14T11:18:30.947Z,343.08
2023-05-14T11:19:31.009Z,342.72
2023-05-14T11:20:31.100Z,344.87
2023-05-14T11:21:31.178Z,346.31
2023-05-14T11:22:31.245Z,344.87
2023-05-14T11:23:31.291Z,344.15
2023-05-14T11:24:31.383Z,344.15
2023-05-14T11:25:31.463Z,345.95
2023-05-14T11:26:31.585Z,345.95
2023-05-14T11:27:31.616Z,344.15
2023-05-14T11:28:31.702Z,343.43
2023-05-14T11:29:31.775Z,344.87
2023-05-14T11:30:31.854Z,344.51
2023-05-14T11:31:31.963Z,344.51
2023-05-14T11:32:32.019Z,344.51
2023-05-14T11:33:32.060Z,342.01
2023-05-14T11:34:32.144Z,343.79
2023-05-14T11:35:32.231Z,345.23
2023-05-14T11:36:32.320Z,344.15
2023-05-14T11:37:32.425Z,340.60
2023-05-14T11:38:32.477Z,342.37
2023-05-14T11:39:32.564Z,344.51
2023-05-14T11:40:32.630Z,344.51
2023-05-14T11:41:32.742Z,341.66
2023-05-14T11:42:32.851Z,342.37
2023-05-14T11:43:32.918Z,343.79
2023-05-14T11:44:33.020Z,343.79
2023-05-14T11:45:33.100Z,341.31
2023-05-14T11:46:33.232Z,342.72
2023-05-14T11:47:33.324Z,342.37
2023-05-14T11:48:33.392Z,344.15
2023-05-14T11:49:33.430Z,341.66
2023-05-14T11:50:33.500Z,342.01
2023-05-14T11:51:33.586Z,343.43
2023-05-14T11:52:33.672Z,342.72
2023-05-14T11:53:33.749Z,342.01
2023-05-14T11:54:33.821Z,344.15
2023-05-14T11:55:33.902Z,340.25
2023-05-14T11:56:33.982Z,340.95
2023-05-14T11:57:34.053Z,342.37
2023-05-14T11:58:34.172Z,342.72
2023-05-14T11:59:34.240Z,342.37
2023-05-14T12:00:34.313Z,342.72
2023-05-14T12:01:34.366Z,339.21
2023-05-14T12:02:34.576Z,341.31
2023-05-14T12:03:34.803Z,342.01
2023-05-14T12:04:34.642Z,339.55
2023-05-14T12:05:34.682Z,342.72
2023-05-14T12:06:34.754Z,340.95
2023-05-14T12:07:34.825Z,340.95
2023-05-14T12:08:34.924Z,341.66
2023-05-14T12:09:35.003Z,340.60
2023-05-14T12:10:35.087Z,340.25
2023-05-14T12:11:35.163Z,342.37
2023-05-14T12:12:35.225Z,342.72
2023-05-14T12:13:35.307Z,340.25
2023-05-14T12:14:35.397Z,341.31
2023-05-14T12:15:35.464Z,340.60
2023-05-14T12:16:37.629Z,341.66
2023-05-14T12:17:35.696Z,341.31
2023-05-14T12:18:35.778Z,341.66
2023-05-14T12:19:35.804Z,342.37
2023-05-14T12:20:35.874Z,339.90
2023-05-14T12:21:35.948Z,342.72
2023-05-14T12:22:37.135Z,340.25
2023-05-14T12:23:36.115Z,339.55
2023-05-14T12:24:36.230Z,342.01
2023-05-14T12:25:36.267Z,340.95
2023-05-14T12:26:36.365Z,341.31
2023-05-14T12:27:36.439Z,339.55
2023-05-14T12:28:38.551Z,340.60
2023-05-14T12:29:36.657Z,342.37